Vb Superenzo 10 — FHXE — position and weather

sailwx.info

Track history (hours):
 
Tides and Currents Weather Stations Pressure Air Temp Water Temp Dewpoint Dewpoint Depression Visibility Wind Speed Wind Dir Waves Ship Positions

Vb Superenzo 10

Last reported at 2017-Aug-20 09:18 UTC. Time now 2017-Nov-18 06:57 UTC.
Position N 27°57' W 015°05'.
Warning: this ship's position is months out of date.

Length 29 m; draft 4.8 m.

Type: Tug. MMSI: 228011900.

Date/timePositionNaut miles runAvg speedWind from/ knotsBaromVisibWave heightAir tempDewpointWater temp
2017-Aug-20 09:18N 27°57' W 015°05'4 9.8
2017-Aug-20 08:55N 27°60' W 015°04'7610.0
2017-Aug-20 01:20N 29°13' W 014°40'11 9.7
2017-Aug-20 00:09N 29°24' W 014°37'73 9.7
2017-Aug-19 16:38N 30°35' W 014°17'377 9.5
2017-Aug-18 00:50N 36°39' W 012°23'3 9.4
2017-Aug-18 00:30N 36°43' W 012°22'5 9.3
2017-Aug-18 00:00N 36°47' W 012°20'5 9.6
2017-Aug-17 23:30N 36°51' W 012°18'5 9.5
2017-Aug-17 23:00N 36°56' W 012°16'5 9.5
2017-Aug-17 22:30N 37°00' W 012°15'5 9.5
2017-Aug-17 22:00N 37°05' W 012°13'5 9.3
2017-Aug-17 21:30N 37°09' W 012°12'5 9.2
2017-Aug-17 21:00N 37°14' W 012°10'5 9.4
2017-Aug-17 20:30N 37°19' W 012°09'5 9.4
2017-Aug-17 20:00N 37°23' W 012°08'6 9.4
2017-Aug-17 19:20N 37°29' W 012°06'3 9.4
2017-Aug-17 19:00N 37°32' W 012°05'5 9.4
2017-Aug-17 18:30N 37°37' W 012°04'5 9.2
2017-Aug-17 18:00N 37°41' W 012°03'5 9.1
2017-Aug-17 17:30N 37°46' W 012°01'5 9.3
2017-Aug-17 17:01N 37°50' W 011°59'5 9.5
2017-Aug-17 16:30N 37°55' W 011°58'5 9.4
2017-Aug-17 16:00N 37°59' W 011°56'5 9.4
2017-Aug-17 15:30N 38°04' W 011°55'5 9.3
2017-Aug-17 15:00N 38°08' W 011°53'5 9.2
2017-Aug-17 14:30N 38°13' W 011°52'7 9.0
2017-Aug-17 13:42N 38°20' W 011°49'33 9.2
2017-Aug-17 10:08N 38°51' W 011°37'4 9.5
2017-Aug-17 09:42N 38°55' W 011°36'2 9.6
2017-Aug-17 09:28N 38°57' W 011°35'10 9.6
2017-Aug-17 08:24N 39°07' W 011°32'5 9.3
2017-Aug-17 07:53N 39°12' W 011°30'4 9.4
2017-Aug-17 07:30N 39°15' W 011°29'5 9.8
2017-Aug-17 06:58N 39°20' W 011°27'6 9.9
2017-Aug-17 06:20N 39°27' W 011°25'3 9.7
2017-Aug-17 06:00N 39°30' W 011°24'8 9.8
2017-Aug-17 05:12N 39°37' W 011°22'4 9.8
2017-Aug-17 04:48N 39°41' W 011°20'  
2017-Aug-14 17:58N 48°01' W 006°33'219 8.9
2017-Aug-13 17:26N 50°08' W 002°01'511.6
2017-Aug-13 17:00N 50°08' W 001°53'611.7
2017-Aug-13 16:30N 50°05' W 001°45'611.2
2017-Aug-13 16:00N 50°03' W 001°38'510.5
2017-Aug-13 15:30N 50°00' W 001°30'510.2
2017-Aug-13 15:00N 49°58' W 001°23'5 9.6
2017-Aug-13 14:30N 49°56' W 001°16'4 8.7
2017-Aug-13 14:00N 49°54' W 001°10'4 8.2
2017-Aug-13 13:30N 49°52' W 001°05'4 7.4
2017-Aug-13 13:00N 49°50' W 000°60'4 7.0
2017-Aug-13 12:30N 49°48' W 000°55'30 7.4
2017-Aug-13 08:25N 49°33' W 000°14'4 8.8
2017-Aug-13 07:54N 49°32' W 000°08'4 9.0
2017-Aug-13 07:30N 49°31' W 000°03'4 8.8
2017-Aug-13 07:00N 49°29' E 000°04'3 5.7
2017-Aug-13 06:30N 49°29' E 000°08'0 0.0
2017-Aug-13 06:00N 49°29' E 000°08'0 0.0
2017-Aug-13 05:30N 49°29' E 000°08'0 0.0
2017-Aug-13 05:00N 49°29' E 000°08'0 0.0
2017-Aug-13 04:30N 49°29' E 000°08'0 0.0
2017-Aug-13 04:00N 49°29' E 000°08'0 0.0
2017-Aug-13 03:30N 49°29' E 000°08'0 0.0
2017-Aug-13 03:00N 49°29' E 000°08'0 0.0
2017-Aug-13 02:30N 49°29' E 000°08'0 0.0
2017-Aug-13 02:00N 49°29' E 000°08'0 0.0
2017-Aug-13 01:30N 49°29' E 000°08'0 0.0
2017-Aug-13 01:00N 49°29' E 000°08'0 0.0
2017-Aug-13 00:30N 49°29' E 000°08'0 0.0
2017-Aug-13 00:00N 49°29' E 000°08'0 0.0
2017-Aug-12 23:30N 49°29' E 000°08'0 0.0
2017-Aug-12 23:00N 49°29' E 000°08'0 0.0
2017-Aug-12 22:30N 49°29' E 000°08'0 0.0
2017-Aug-12 22:00N 49°29' E 000°08'0 0.0
2017-Aug-12 21:30N 49°29' E 000°08'0 0.0
2017-Aug-12 21:00N 49°29' E 000°08'0 0.0
2017-Aug-12 20:30N 49°29' E 000°08'0 0.0
2017-Aug-12 20:00N 49°29' E 000°08'0 0.0
2017-Aug-12 19:30N 49°29' E 000°08'0 0.0
2017-Aug-12 19:00N 49°29' E 000°08'0 0.0
2017-Aug-12 18:30N 49°29' E 000°08'0 0.0
2017-Aug-12 18:00N 49°29' E 000°08'0 0.0
2017-Aug-12 17:30N 49°29' E 000°08'0 0.0
2017-Aug-12 17:00N 49°29' E 000°08'0 0.0
2017-Aug-12 16:30N 49°29' E 000°08'0 0.0
2017-Aug-12 16:00N 49°29' E 000°08'0 0.0
2017-Aug-12 15:30N 49°29' E 000°08'0 0.0
2017-Aug-12 15:00N 49°29' E 000°08'0 0.0
2017-Aug-12 14:30N 49°29' E 000°08'0 0.0
2017-Aug-12 14:00N 49°29' E 000°08'0 0.0
2017-Aug-12 13:30N 49°29' E 000°08'0 0.0
2017-Aug-12 13:00N 49°29' E 000°08'0 0.0
2017-Aug-12 12:30N 49°29' E 000°08'0 0.0
2017-Aug-12 12:00N 49°29' E 000°08'0 0.0
2017-Aug-12 11:30N 49°29' E 000°08'0 0.0
2017-Aug-12 11:00N 49°29' E 000°08'0 0.0
2017-Aug-12 10:30N 49°29' E 000°08'0 0.0
2017-Aug-12 10:00N 49°29' E 000°08'0 0.0
2017-Aug-12 09:30N 49°29' E 000°08'0 0.0
2017-Aug-12 09:00N 49°29' E 000°08'0 0.0
2017-Aug-12 08:30N 49°29' E 000°08'0 0.0
2017-Aug-12 08:00N 49°29' E 000°08'0 0.0
2017-Aug-12 07:30N 49°29' E 000°08'0 0.0
2017-Aug-12 07:00N 49°29' E 000°08'0 0.0
2017-Aug-12 06:30N 49°29' E 000°08'0 0.0
2017-Aug-12 06:00N 49°29' E 000°08'0 0.0
2017-Aug-12 05:30N 49°29' E 000°08'0 0.0
2017-Aug-12 05:00N 49°29' E 000°08'0 0.0
2017-Aug-12 04:30N 49°29' E 000°08'0 0.0
2017-Aug-12 04:00N 49°29' E 000°08'0 0.0
2017-Aug-12 03:30N 49°29' E 000°08'0 0.0
2017-Aug-12 03:00N 49°29' E 000°08'0 0.0
2017-Aug-12 02:30N 49°29' E 000°08'0 0.0
2017-Aug-12 02:00N 49°29' E 000°08'0 0.0
2017-Aug-12 01:30N 49°29' E 000°08'0 0.0
2017-Aug-12 01:00N 49°29' E 000°08'0 0.0
2017-Aug-12 00:30N 49°29' E 000°08'0 0.0
2017-Aug-12 00:00N 49°29' E 000°08'0 0.0
2017-Aug-11 23:30N 49°29' E 000°08'0 0.0
2017-Aug-11 23:00N 49°29' E 000°08'0 0.0
2017-Aug-11 22:30N 49°29' E 000°08'0 0.0
2017-Aug-11 22:00N 49°29' E 000°08'0 0.0
2017-Aug-11 21:30N 49°29' E 000°08'0 0.0
2017-Aug-11 21:00N 49°29' E 000°08'0 0.0
2017-Aug-11 20:30N 49°29' E 000°08'0 0.0
2017-Aug-11 20:00N 49°29' E 000°08'0 0.0
2017-Aug-11 19:30N 49°29' E 000°08'0 0.0
2017-Aug-11 19:00N 49°29' E 000°08'0 0.0
2017-Aug-11 18:30N 49°29' E 000°08'0 0.0
2017-Aug-11 18:00N 49°29' E 000°08'0 0.3
2017-Aug-11 17:30N 49°29' E 000°08'0 0.0
2017-Aug-11 17:00N 49°29' E 000°08'0 0.0
2017-Aug-11 16:30N 49°29' E 000°08'0 0.0
2017-Aug-11 16:00N 49°29' E 000°08'0 0.0
2017-Aug-11 15:30N 49°29' E 000°08'0 0.0
2017-Aug-11 15:00N 49°29' E 000°08'0 0.0
2017-Aug-11 14:00N 49°29' E 000°08'0 0.0
2017-Aug-11 13:30N 49°29' E 000°08'0 0.0
2017-Aug-11 13:00N 49°29' E 000°08'0 0.0
2017-Aug-11 12:30N 49°29' E 000°08'0 0.0
2017-Aug-11 12:00N 49°29' E 000°08'0 0.1
2017-Aug-11 11:31N 49°29' E 000°08'0 0.2
2017-Aug-11 11:00N 49°29' E 000°08'0 0.0
2017-Aug-11 10:30N 49°29' E 000°08'0 0.0
2017-Aug-11 10:00N 49°29' E 000°08'0 0.0
2017-Aug-11 09:30N 49°29' E 000°08'0 0.0
2017-Aug-11 09:00N 49°29' E 000°08'0 0.0
2017-Aug-11 08:30N 49°29' E 000°08'0 0.0
2017-Aug-11 08:00N 49°29' E 000°08'0 0.0
2017-Aug-11 07:34N 49°29' E 000°08'0 0.0
2017-Aug-11 07:19N 49°29' E 000°08'0 0.0
2017-Aug-11 07:00N 49°29' E 000°08'0 0.0
2017-Aug-11 06:30N 49°29' E 000°08'0 0.0
2017-Aug-11 06:00N 49°29' E 000°08'0 0.0
2017-Aug-11 05:30N 49°29' E 000°08'0 0.0
2017-Aug-11 05:00N 49°29' E 000°08'0 0.0
2017-Aug-11 04:30N 49°29' E 000°08'0 0.0
2017-Aug-11 04:00N 49°29' E 000°08'0 0.0
2017-Aug-11 03:30N 49°29' E 000°08'0 0.0
2017-Aug-11 03:00N 49°29' E 000°08'0 0.0
2017-Aug-11 02:30N 49°29' E 000°08'0 0.0
2017-Aug-11 02:00N 49°29' E 000°08'0 0.0
2017-Aug-11 01:30N 49°29' E 000°08'0 0.0
2017-Aug-11 01:00N 49°29' E 000°08'0 0.0
2017-Aug-11 00:30N 49°29' E 000°08'0 0.0
2017-Aug-11 00:00N 49°29' E 000°08'0 0.0
2017-Aug-10 23:30N 49°29' E 000°08'0 0.0
2017-Aug-10 23:00N 49°29' E 000°08'0 0.0
2017-Aug-10 22:30N 49°29' E 000°08'0 0.0
2017-Aug-10 22:00N 49°29' E 000°08'0 0.0
2017-Aug-10 21:30N 49°29' E 000°08'0 0.0
2017-Aug-10 21:00N 49°29' E 000°08'0 0.0
2017-Aug-10 20:30N 49°29' E 000°08'0 0.0
2017-Aug-10 20:00N 49°29' E 000°08'0 0.0
2017-Aug-10 19:30N 49°29' E 000°08'0 0.0
2017-Aug-10 19:00N 49°29' E 000°08'0 0.0
2017-Aug-10 18:30N 49°29' E 000°08'0 0.0
2017-Aug-10 18:00N 49°29' E 000°08'0 0.0
2017-Aug-10 17:30N 49°29' E 000°08'0 0.0
2017-Aug-10 17:00N 49°29' E 000°08'0 0.0
2017-Aug-10 16:30N 49°29' E 000°08'0 0.0
2017-Aug-10 16:00N 49°29' E 000°08'0 0.0
2017-Aug-10 15:30N 49°29' E 000°08'0 0.0
2017-Aug-10 15:00N 49°29' E 000°08'0 0.0
2017-Aug-10 14:30N 49°29' E 000°08'0 0.0
2017-Aug-10 13:30N 49°29' E 000°08'0 0.0
2017-Aug-10 13:00N 49°29' E 000°08'0 0.0
2017-Aug-10 12:30N 49°29' E 000°08'0 0.0
2017-Aug-10 12:00N 49°29' E 000°08'0 0.0
2017-Aug-10 11:30N 49°29' E 000°08'0 0.0
2017-Aug-10 11:00N 49°29' E 000°08'0 0.0
2017-Aug-10 10:30N 49°29' E 000°08'0 0.0
2017-Aug-10 10:00N 49°29' E 000°08'0 0.0
2017-Aug-10 09:30N 49°29' E 000°08'  
Track history (hours):
 
Tides and Currents Weather Stations Pressure Air Temp Water Temp Dewpoint Dewpoint Depression Visibility Wind Speed Wind Dir Waves Ship Positions

Vb Superenzo 10

Last reported at 2017-Aug-20 09:18 UTC. Time now 2017-Nov-18 06:57 UTC.
Position N 27°57' W 015°05'.
Warning: this ship's position is months out of date.

Length 29 m; draft 4.8 m.

Type: Tug. MMSI: 228011900.

Date/timePositionNaut miles runAvg speedWind from/ knotsBaromVisibWave heightAir tempDewpointWater temp
2017-Aug-20 09:18N 27°57' W 015°05'4 9.8
2017-Aug-20 08:55N 27°60' W 015°04'7610.0
2017-Aug-20 01:20N 29°13' W 014°40'11 9.7
2017-Aug-20 00:09N 29°24' W 014°37'73 9.7
2017-Aug-19 16:38N 30°35' W 014°17'377 9.5
2017-Aug-18 00:50N 36°39' W 012°23'3 9.4
2017-Aug-18 00:30N 36°43' W 012°22'5 9.3
2017-Aug-18 00:00N 36°47' W 012°20'5 9.6
2017-Aug-17 23:30N 36°51' W 012°18'5 9.5
2017-Aug-17 23:00N 36°56' W 012°16'5 9.5
2017-Aug-17 22:30N 37°00' W 012°15'5 9.5
2017-Aug-17 22:00N 37°05' W 012°13'5 9.3
2017-Aug-17 21:30N 37°09' W 012°12'5 9.2
2017-Aug-17 21:00N 37°14' W 012°10'5 9.4
2017-Aug-17 20:30N 37°19' W 012°09'5 9.4
2017-Aug-17 20:00N 37°23' W 012°08'6 9.4
2017-Aug-17 19:20N 37°29' W 012°06'3 9.4
2017-Aug-17 19:00N 37°32' W 012°05'5 9.4
2017-Aug-17 18:30N 37°37' W 012°04'5 9.2
2017-Aug-17 18:00N 37°41' W 012°03'5 9.1
2017-Aug-17 17:30N 37°46' W 012°01'5 9.3
2017-Aug-17 17:01N 37°50' W 011°59'5 9.5
2017-Aug-17 16:30N 37°55' W 011°58'5 9.4
2017-Aug-17 16:00N 37°59' W 011°56'5 9.4
2017-Aug-17 15:30N 38°04' W 011°55'5 9.3
2017-Aug-17 15:00N 38°08' W 011°53'5 9.2
2017-Aug-17 14:30N 38°13' W 011°52'7 9.0
2017-Aug-17 13:42N 38°20' W 011°49'33 9.2
2017-Aug-17 10:08N 38°51' W 011°37'4 9.5
2017-Aug-17 09:42N 38°55' W 011°36'2 9.6
2017-Aug-17 09:28N 38°57' W 011°35'10 9.6
2017-Aug-17 08:24N 39°07' W 011°32'5 9.3
2017-Aug-17 07:53N 39°12' W 011°30'4 9.4
2017-Aug-17 07:30N 39°15' W 011°29'5 9.8
2017-Aug-17 06:58N 39°20' W 011°27'6 9.9
2017-Aug-17 06:20N 39°27' W 011°25'3 9.7
2017-Aug-17 06:00N 39°30' W 011°24'8 9.8
2017-Aug-17 05:12N 39°37' W 011°22'4 9.8
2017-Aug-17 04:48N 39°41' W 011°20'  
2017-Aug-14 17:58N 48°01' W 006°33'219 8.9
2017-Aug-13 17:26N 50°08' W 002°01'511.6
2017-Aug-13 17:00N 50°08' W 001°53'611.7
2017-Aug-13 16:30N 50°05' W 001°45'611.2
2017-Aug-13 16:00N 50°03' W 001°38'510.5
2017-Aug-13 15:30N 50°00' W 001°30'510.2
2017-Aug-13 15:00N 49°58' W 001°23'5 9.6
2017-Aug-13 14:30N 49°56' W 001°16'4 8.7
2017-Aug-13 14:00N 49°54' W 001°10'4 8.2
2017-Aug-13 13:30N 49°52' W 001°05'4 7.4
2017-Aug-13 13:00N 49°50' W 000°60'4 7.0
2017-Aug-13 12:30N 49°48' W 000°55'30 7.4
2017-Aug-13 08:25N 49°33' W 000°14'4 8.8
2017-Aug-13 07:54N 49°32' W 000°08'4 9.0
2017-Aug-13 07:30N 49°31' W 000°03'4 8.8
2017-Aug-13 07:00N 49°29' E 000°04'3 5.7
2017-Aug-13 06:30N 49°29' E 000°08'0 0.0
2017-Aug-13 06:00N 49°29' E 000°08'0 0.0
2017-Aug-13 05:30N 49°29' E 000°08'0 0.0
2017-Aug-13 05:00N 49°29' E 000°08'0 0.0
2017-Aug-13 04:30N 49°29' E 000°08'0 0.0
2017-Aug-13 04:00N 49°29' E 000°08'0 0.0
2017-Aug-13 03:30N 49°29' E 000°08'0 0.0
2017-Aug-13 03:00N 49°29' E 000°08'0 0.0
2017-Aug-13 02:30N 49°29' E 000°08'0 0.0
2017-Aug-13 02:00N 49°29' E 000°08'0 0.0
2017-Aug-13 01:30N 49°29' E 000°08'0 0.0
2017-Aug-13 01:00N 49°29' E 000°08'0 0.0
2017-Aug-13 00:30N 49°29' E 000°08'0 0.0
2017-Aug-13 00:00N 49°29' E 000°08'0 0.0
2017-Aug-12 23:30N 49°29' E 000°08'0 0.0
2017-Aug-12 23:00N 49°29' E 000°08'0 0.0
2017-Aug-12 22:30N 49°29' E 000°08'0 0.0
2017-Aug-12 22:00N 49°29' E 000°08'0 0.0
2017-Aug-12 21:30N 49°29' E 000°08'0 0.0
2017-Aug-12 21:00N 49°29' E 000°08'0 0.0
2017-Aug-12 20:30N 49°29' E 000°08'0 0.0
2017-Aug-12 20:00N 49°29' E 000°08'0 0.0
2017-Aug-12 19:30N 49°29' E 000°08'0 0.0
2017-Aug-12 19:00N 49°29' E 000°08'0 0.0
2017-Aug-12 18:30N 49°29' E 000°08'0 0.0
2017-Aug-12 18:00N 49°29' E 000°08'0 0.0
2017-Aug-12 17:30N 49°29' E 000°08'0 0.0
2017-Aug-12 17:00N 49°29' E 000°08'0 0.0
2017-Aug-12 16:30N 49°29' E 000°08'0 0.0
2017-Aug-12 16:00N 49°29' E 000°08'0 0.0
2017-Aug-12 15:30N 49°29' E 000°08'0 0.0
2017-Aug-12 15:00N 49°29' E 000°08'0 0.0
2017-Aug-12 14:30N 49°29' E 000°08'0 0.0
2017-Aug-12 14:00N 49°29' E 000°08'0 0.0
2017-Aug-12 13:30N 49°29' E 000°08'0 0.0
2017-Aug-12 13:00N 49°29' E 000°08'0 0.0
2017-Aug-12 12:30N 49°29' E 000°08'0 0.0
2017-Aug-12 12:00N 49°29' E 000°08'0 0.0
2017-Aug-12 11:30N 49°29' E 000°08'0 0.0
2017-Aug-12 11:00N 49°29' E 000°08'0 0.0
2017-Aug-12 10:30N 49°29' E 000°08'0 0.0
2017-Aug-12 10:00N 49°29' E 000°08'0 0.0
2017-Aug-12 09:30N 49°29' E 000°08'0 0.0
2017-Aug-12 09:00N 49°29' E 000°08'0 0.0
2017-Aug-12 08:30N 49°29' E 000°08'0 0.0
2017-Aug-12 08:00N 49°29' E 000°08'0 0.0
2017-Aug-12 07:30N 49°29' E 000°08'0 0.0
2017-Aug-12 07:00N 49°29' E 000°08'0 0.0
2017-Aug-12 06:30N 49°29' E 000°08'0 0.0
2017-Aug-12 06:00N 49°29' E 000°08'0 0.0
2017-Aug-12 05:30N 49°29' E 000°08'0 0.0
2017-Aug-12 05:00N 49°29' E 000°08'0 0.0
2017-Aug-12 04:30N 49°29' E 000°08'0 0.0
2017-Aug-12 04:00N 49°29' E 000°08'0 0.0
2017-Aug-12 03:30N 49°29' E 000°08'0 0.0
2017-Aug-12 03:00N 49°29' E 000°08'0 0.0
2017-Aug-12 02:30N 49°29' E 000°08'0 0.0
2017-Aug-12 02:00N 49°29' E 000°08'0 0.0
2017-Aug-12 01:30N 49°29' E 000°08'0 0.0
2017-Aug-12 01:00N 49°29' E 000°08'0 0.0
2017-Aug-12 00:30N 49°29' E 000°08'0 0.0
2017-Aug-12 00:00N 49°29' E 000°08'0 0.0
2017-Aug-11 23:30N 49°29' E 000°08'0 0.0
2017-Aug-11 23:00N 49°29' E 000°08'0 0.0
2017-Aug-11 22:30N 49°29' E 000°08'0 0.0
2017-Aug-11 22:00N 49°29' E 000°08'0 0.0
2017-Aug-11 21:30N 49°29' E 000°08'0 0.0
2017-Aug-11 21:00N 49°29' E 000°08'0 0.0
2017-Aug-11 20:30N 49°29' E 000°08'0 0.0
2017-Aug-11 20:00N 49°29' E 000°08'0 0.0
2017-Aug-11 19:30N 49°29' E 000°08'0 0.0
2017-Aug-11 19:00N 49°29' E 000°08'0 0.0
2017-Aug-11 18:30N 49°29' E 000°08'0 0.0
2017-Aug-11 18:00N 49°29' E 000°08'0 0.3
2017-Aug-11 17:30N 49°29' E 000°08'0 0.0
2017-Aug-11 17:00N 49°29' E 000°08'0 0.0
2017-Aug-11 16:30N 49°29' E 000°08'0 0.0
2017-Aug-11 16:00N 49°29' E 000°08'0 0.0
2017-Aug-11 15:30N 49°29' E 000°08'0 0.0
2017-Aug-11 15:00N 49°29' E 000°08'0 0.0
2017-Aug-11 14:00N 49°29' E 000°08'0 0.0
2017-Aug-11 13:30N 49°29' E 000°08'0 0.0
2017-Aug-11 13:00N 49°29' E 000°08'0 0.0
2017-Aug-11 12:30N 49°29' E 000°08'0 0.0
2017-Aug-11 12:00N 49°29' E 000°08'0 0.1
2017-Aug-11 11:31N 49°29' E 000°08'0 0.2
2017-Aug-11 11:00N 49°29' E 000°08'0 0.0
2017-Aug-11 10:30N 49°29' E 000°08'0 0.0
2017-Aug-11 10:00N 49°29' E 000°08'0 0.0
2017-Aug-11 09:30N 49°29' E 000°08'0 0.0
2017-Aug-11 09:00N 49°29' E 000°08'0 0.0
2017-Aug-11 08:30N 49°29' E 000°08'0 0.0
2017-Aug-11 08:00N 49°29' E 000°08'0 0.0
2017-Aug-11 07:34N 49°29' E 000°08'0 0.0
2017-Aug-11 07:19N 49°29' E 000°08'0 0.0
2017-Aug-11 07:00N 49°29' E 000°08'0 0.0
2017-Aug-11 06:30N 49°29' E 000°08'0 0.0
2017-Aug-11 06:00N 49°29' E 000°08'0 0.0
2017-Aug-11 05:30N 49°29' E 000°08'0 0.0
2017-Aug-11 05:00N 49°29' E 000°08'0 0.0
2017-Aug-11 04:30N 49°29' E 000°08'0 0.0
2017-Aug-11 04:00N 49°29' E 000°08'0 0.0
2017-Aug-11 03:30N 49°29' E 000°08'0 0.0
2017-Aug-11 03:00N 49°29' E 000°08'0 0.0
2017-Aug-11 02:30N 49°29' E 000°08'0 0.0
2017-Aug-11 02:00N 49°29' E 000°08'0 0.0
2017-Aug-11 01:30N 49°29' E 000°08'0 0.0
2017-Aug-11 01:00N 49°29' E 000°08'0 0.0
2017-Aug-11 00:30N 49°29' E 000°08'0 0.0
2017-Aug-11 00:00N 49°29' E 000°08'0 0.0
2017-Aug-10 23:30N 49°29' E 000°08'0 0.0
2017-Aug-10 23:00N 49°29' E 000°08'0 0.0
2017-Aug-10 22:30N 49°29' E 000°08'0 0.0
2017-Aug-10 22:00N 49°29' E 000°08'0 0.0
2017-Aug-10 21:30N 49°29' E 000°08'0 0.0
2017-Aug-10 21:00N 49°29' E 000°08'0 0.0
2017-Aug-10 20:30N 49°29' E 000°08'0 0.0
2017-Aug-10 20:00N 49°29' E 000°08'0 0.0
2017-Aug-10 19:30N 49°29' E 000°08'0 0.0
2017-Aug-10 19:00N 49°29' E 000°08'0 0.0
2017-Aug-10 18:30N 49°29' E 000°08'0 0.0
2017-Aug-10 18:00N 49°29' E 000°08'0 0.0
2017-Aug-10 17:30N 49°29' E 000°08'0 0.0
2017-Aug-10 17:00N 49°29' E 000°08'0 0.0
2017-Aug-10 16:30N 49°29' E 000°08'0 0.0
2017-Aug-10 16:00N 49°29' E 000°08'0 0.0
2017-Aug-10 15:30N 49°29' E 000°08'0 0.0
2017-Aug-10 15:00N 49°29' E 000°08'0 0.0
2017-Aug-10 14:30N 49°29' E 000°08'0 0.0
2017-Aug-10 13:30N 49°29' E 000°08'0 0.0
2017-Aug-10 13:00N 49°29' E 000°08'0 0.0
2017-Aug-10 12:30N 49°29' E 000°08'0 0.0
2017-Aug-10 12:00N 49°29' E 000°08'0 0.0
2017-Aug-10 11:30N 49°29' E 000°08'0 0.0
2017-Aug-10 11:00N 49°29' E 000°08'0 0.0
2017-Aug-10 10:30N 49°29' E 000°08'0 0.0
2017-Aug-10 10:00N 49°29' E 000°08'0 0.0
2017-Aug-10 09:30N 49°29' E 000°08'  

Dump ship's entire track history